Decoded Metar for CYYL (LYNN LAKE in MB, CANADA) (IATA:YYL) | Meteo·Mobile Aviation Weather
aviador You're here:

CYYL Decoded Metar

LYNN LAKE in MB, CANADA
Report Time2019-01-19 02:00:00
UTC Time2019-01-19 02:47:07
Flight Rules vfr VFR
Wind290° at 05 kt
W.Decomp.*RWY 26: 4.6 kt HW 1.9 kt RCW
RWY 35: 1.9 kt HW 4.6 kt LCW
W.Rank290° ranks 4
Current wind is below 290° avg. (7.7)
Visibility9999 m
Phenomena:N/A
Clouds:N/A
Expected CloudBase > 1,200 ft AGL from Temp-Dew spread
CeilingNone
Temp-34°C (ISA -47)
Dew Point-37°C (74% RH)
AAT-39.7°C
QNH1027 hPa
Density Alt-5,479 ft
Elevation1,171 ft
Report Wrong Elevation
Raw Report
CYYL 190200Z AUTO 29005KT 9SM CLR M34/M37 A3033 RMK SLP337=

Extra information for CYYL:More info

Metar Taf Metar & Taf Last 4 Metars F.Rules Stats Wind Profile Meteogram Temp Stats Airport Information Weather charts Add Link Nearby VenuesMetar ALERT Operation Metar Decoded Social comments